sensor_id;sensor_type;location;lat;lon;timestamp;P1;durP1;ratioP1;P2;durP2;ratioP2
65567;SDS011;52211;50.154;8.682;2023-12-04T00:00:43;13.33;;;10.27;;
65567;SDS011;52211;50.154;8.682;2023-12-04T00:03:12;13.93;;;10.80;;
65567;SDS011;52211;50.154;8.682;2023-12-04T00:05:42;13.43;;;10.50;;
65567;SDS011;52211;50.154;8.682;2023-12-04T00:08:10;13.60;;;10.50;;
65567;SDS011;52211;50.154;8.682;2023-12-04T00:10:37;14.73;;;11.00;;
65567;SDS011;52211;50.154;8.682;2023-12-04T00:13:06;15.20;;;10.53;;
65567;SDS011;52211;50.154;8.682;2023-12-04T00:15:36;14.73;;;10.40;;
65567;SDS011;52211;50.154;8.682;2023-12-04T00:18:08;12.77;;;9.73;;
65567;SDS011;52211;50.154;8.682;2023-12-04T00:20:42;14.17;;;9.90;;
65567;SDS011;52211;50.154;8.682;2023-12-04T00:23:11;13.73;;;10.20;;
65567;SDS011;52211;50.154;8.682;2023-12-04T00:25:38;13.07;;;10.50;;
65567;SDS011;52211;50.154;8.682;2023-12-04T00:28:09;14.83;;;10.57;;
65567;SDS011;52211;50.154;8.682;2023-12-04T00:30:44;15.83;;;11.10;;
65567;SDS011;52211;50.154;8.682;2023-12-04T00:33:16;14.03;;;10.50;;
65567;SDS011;52211;50.154;8.682;2023-12-04T00:35:43;14.67;;;10.57;;
65567;SDS011;52211;50.154;8.682;2023-12-04T00:38:12;13.67;;;10.13;;
65567;SDS011;52211;50.154;8.682;2023-12-04T00:40:41;17.63;;;11.03;;
65567;SDS011;52211;50.154;8.682;2023-12-04T00:43:08;13.60;;;10.77;;
65567;SDS011;52211;50.154;8.682;2023-12-04T00:45:38;14.10;;;11.20;;
65567;SDS011;52211;50.154;8.682;2023-12-04T00:48:04;13.93;;;10.27;;
65567;SDS011;52211;50.154;8.682;2023-12-04T00:50:36;15.10;;;10.60;;
65567;SDS011;52211;50.154;8.682;2023-12-04T00:53:05;15.00;;;10.50;;
65567;SDS011;52211;50.154;8.682;2023-12-04T00:55:32;13.17;;;9.80;;
65567;SDS011;52211;50.154;8.682;2023-12-04T00:57:59;13.80;;;10.43;;
65567;SDS011;52211;50.154;8.682;2023-12-04T01:00:31;14.07;;;10.77;;
65567;SDS011;52211;50.154;8.682;2023-12-04T01:02:58;16.73;;;10.93;;
65567;SDS011;52211;50.154;8.682;2023-12-04T01:05:28;12.67;;;9.83;;
65567;SDS011;52211;50.154;8.682;2023-12-04T01:08:02;15.50;;;11.40;;
65567;SDS011;52211;50.154;8.682;2023-12-04T01:10:29;16.10;;;10.83;;
65567;SDS011;52211;50.154;8.682;2023-12-04T01:12:56;17.73;;;11.63;;
65567;SDS011;52211;50.154;8.682;2023-12-04T01:15:26;14.63;;;10.97;;
65567;SDS011;52211;50.154;8.682;2023-12-04T01:17:53;14.23;;;11.47;;
65567;SDS011;52211;50.154;8.682;2023-12-04T01:20:20;14.00;;;10.20;;
65567;SDS011;52211;50.154;8.682;2023-12-04T01:22:47;13.83;;;10.73;;
65567;SDS011;52211;50.154;8.682;2023-12-04T01:25:13;15.03;;;10.20;;
65567;SDS011;52211;50.154;8.682;2023-12-04T01:27:44;15.50;;;11.13;;
65567;SDS011;52211;50.154;8.682;2023-12-04T01:30:15;13.90;;;10.67;;
65567;SDS011;52211;50.154;8.682;2023-12-04T01:32:45;13.40;;;10.57;;
65567;SDS011;52211;50.154;8.682;2023-12-04T01:35:12;16.57;;;10.83;;
65567;SDS011;52211;50.154;8.682;2023-12-04T01:37:39;14.50;;;10.83;;
65567;SDS011;52211;50.154;8.682;2023-12-04T01:40:06;14.73;;;10.43;;
65567;SDS011;52211;50.154;8.682;2023-12-04T01:42:37;16.60;;;11.47;;
65567;SDS011;52211;50.154;8.682;2023-12-04T01:45:08;12.53;;;10.13;;
65567;SDS011;52211;50.154;8.682;2023-12-04T01:47:38;15.33;;;10.87;;
65567;SDS011;52211;50.154;8.682;2023-12-04T01:50:05;15.93;;;11.60;;
65567;SDS011;52211;50.154;8.682;2023-12-04T01:52:34;14.67;;;10.77;;
65567;SDS011;52211;50.154;8.682;2023-12-04T01:55:03;15.63;;;11.43;;
65567;SDS011;52211;50.154;8.682;2023-12-04T01:57:37;14.27;;;10.77;;
65567;SDS011;52211;50.154;8.682;2023-12-04T02:00:09;18.70;;;12.30;;
65567;SDS011;52211;50.154;8.682;2023-12-04T02:02:39;16.10;;;11.70;;
65567;SDS011;52211;50.154;8.682;2023-12-04T02:05:08;15.67;;;11.73;;
65567;SDS011;52211;50.154;8.682;2023-12-04T02:07:43;16.17;;;12.00;;
65567;SDS011;52211;50.154;8.682;2023-12-04T02:10:14;14.67;;;10.73;;
65567;SDS011;52211;50.154;8.682;2023-12-04T02:12:41;16.10;;;10.83;;
65567;SDS011;52211;50.154;8.682;2023-12-04T02:15:11;17.00;;;11.40;;
65567;SDS011;52211;50.154;8.682;2023-12-04T02:17:43;15.50;;;11.60;;
65567;SDS011;52211;50.154;8.682;2023-12-04T02:20:13;14.43;;;10.73;;
65567;SDS011;52211;50.154;8.682;2023-12-04T02:22:41;14.33;;;9.87;;
65567;SDS011;52211;50.154;8.682;2023-12-04T02:25:08;14.07;;;10.30;;
65567;SDS011;52211;50.154;8.682;2023-12-04T02:27:56;14.70;;;11.40;;
65567;SDS011;52211;50.154;8.682;2023-12-04T02:30:31;17.43;;;11.00;;
65567;SDS011;52211;50.154;8.682;2023-12-04T02:33:07;14.67;;;11.63;;
65567;SDS011;52211;50.154;8.682;2023-12-04T02:35:42;17.40;;;11.77;;
65567;SDS011;52211;50.154;8.682;2023-12-04T02:38:12;15.40;;;11.67;;
65567;SDS011;52211;50.154;8.682;2023-12-04T02:40:39;15.07;;;10.87;;
65567;SDS011;52211;50.154;8.682;2023-12-04T02:43:12;15.20;;;10.53;;
65567;SDS011;52211;50.154;8.682;2023-12-04T02:45:39;15.70;;;10.97;;
65567;SDS011;52211;50.154;8.682;2023-12-04T02:48:06;16.93;;;11.47;;
65567;SDS011;52211;50.154;8.682;2023-12-04T02:50:38;15.20;;;11.33;;
65567;SDS011;52211;50.154;8.682;2023-12-04T02:53:07;15.53;;;11.33;;
65567;SDS011;52211;50.154;8.682;2023-12-04T02:55:34;16.53;;;11.30;;
65567;SDS011;52211;50.154;8.682;2023-12-04T02:58:03;15.60;;;11.17;;
65567;SDS011;52211;50.154;8.682;2023-12-04T03:00:30;16.27;;;11.47;;
65567;SDS011;52211;50.154;8.682;2023-12-04T03:02:57;13.43;;;10.87;;
65567;SDS011;52211;50.154;8.682;2023-12-04T03:05:24;16.97;;;11.40;;
65567;SDS011;52211;50.154;8.682;2023-12-04T03:07:56;14.37;;;11.10;;
65567;SDS011;52211;50.154;8.682;2023-12-04T03:10:25;13.30;;;10.37;;
65567;SDS011;52211;50.154;8.682;2023-12-04T03:12:53;16.63;;;11.80;;
65567;SDS011;52211;50.154;8.682;2023-12-04T03:15:25;14.27;;;11.63;;
65567;SDS011;52211;50.154;8.682;2023-12-04T03:17:57;13.17;;;10.63;;
65567;SDS011;52211;50.154;8.682;2023-12-04T03:20:35;16.77;;;11.93;;
65567;SDS011;52211;50.154;8.682;2023-12-04T03:23:02;13.00;;;9.77;;
65567;SDS011;52211;50.154;8.682;2023-12-04T03:25:29;16.70;;;11.70;;
65567;SDS011;52211;50.154;8.682;2023-12-04T03:27:59;15.63;;;10.77;;
65567;SDS011;52211;50.154;8.682;2023-12-04T03:30:26;17.43;;;11.70;;
65567;SDS011;52211;50.154;8.682;2023-12-04T03:32:53;13.97;;;11.43;;
65567;SDS011;52211;50.154;8.682;2023-12-04T03:35:22;15.43;;;10.90;;
65567;SDS011;52211;50.154;8.682;2023-12-04T03:37:54;13.63;;;9.90;;
65567;SDS011;52211;50.154;8.682;2023-12-04T03:40:24;15.50;;;11.03;;
65567;SDS011;52211;50.154;8.682;2023-12-04T03:42:53;15.07;;;10.90;;
65567;SDS011;52211;50.154;8.682;2023-12-04T03:45:24;18.47;;;12.83;;
65567;SDS011;52211;50.154;8.682;2023-12-04T03:47:51;16.33;;;12.37;;
65567;SDS011;52211;50.154;8.682;2023-12-04T03:50:18;16.30;;;11.63;;
65567;SDS011;52211;50.154;8.682;2023-12-04T03:52:45;13.43;;;10.43;;
65567;SDS011;52211;50.154;8.682;2023-12-04T03:55:14;16.40;;;11.47;;
65567;SDS011;52211;50.154;8.682;2023-12-04T03:57:42;14.83;;;11.60;;
65567;SDS011;52211;50.154;8.682;2023-12-04T04:00:09;14.97;;;10.70;;
65567;SDS011;52211;50.154;8.682;2023-12-04T04:02:42;14.90;;;11.13;;
65567;SDS011;52211;50.154;8.682;2023-12-04T04:05:14;15.20;;;11.17;;
65567;SDS011;52211;50.154;8.682;2023-12-04T04:07:41;17.30;;;11.30;;
65567;SDS011;52211;50.154;8.682;2023-12-04T04:10:09;19.23;;;12.00;;
65567;SDS011;52211;50.154;8.682;2023-12-04T04:12:38;15.50;;;11.40;;
65567;SDS011;52211;50.154;8.682;2023-12-04T04:15:07;15.27;;;11.80;;
65567;SDS011;52211;50.154;8.682;2023-12-04T04:17:35;17.73;;;12.30;;
65567;SDS011;52211;50.154;8.682;2023-12-04T04:20:02;16.70;;;12.50;;
65567;SDS011;52211;50.154;8.682;2023-12-04T04:22:29;13.77;;;10.10;;
65567;SDS011;52211;50.154;8.682;2023-12-04T04:24:58;13.63;;;10.47;;
65567;SDS011;52211;50.154;8.682;2023-12-04T04:27:24;15.13;;;11.13;;
65567;SDS011;52211;50.154;8.682;2023-12-04T04:29:51;16.60;;;12.03;;
65567;SDS011;52211;50.154;8.682;2023-12-04T04:32:20;13.30;;;10.90;;
65567;SDS011;52211;50.154;8.682;2023-12-04T04:34:47;13.70;;;10.63;;
65567;SDS011;52211;50.154;8.682;2023-12-04T04:37:17;13.60;;;10.63;;
65567;SDS011;52211;50.154;8.682;2023-12-04T04:39:45;17.80;;;12.23;;
65567;SDS011;52211;50.154;8.682;2023-12-04T04:42:13;16.13;;;11.07;;
65567;SDS011;52211;50.154;8.682;2023-12-04T04:44:41;19.07;;;12.20;;
65567;SDS011;52211;50.154;8.682;2023-12-04T04:47:12;15.90;;;11.83;;
65567;SDS011;52211;50.154;8.682;2023-12-04T04:49:46;17.30;;;11.87;;
65567;SDS011;52211;50.154;8.682;2023-12-04T04:52:18;18.23;;;12.67;;
65567;SDS011;52211;50.154;8.682;2023-12-04T04:54:45;15.57;;;10.83;;
65567;SDS011;52211;50.154;8.682;2023-12-04T04:57:16;17.27;;;12.03;;
65567;SDS011;52211;50.154;8.682;2023-12-04T04:59:43;14.23;;;10.90;;
65567;SDS011;52211;50.154;8.682;2023-12-04T05:02:10;14.93;;;10.70;;
65567;SDS011;52211;50.154;8.682;2023-12-04T05:04:37;14.87;;;10.97;;
65567;SDS011;52211;50.154;8.682;2023-12-04T05:07:07;15.80;;;11.30;;
65567;SDS011;52211;50.154;8.682;2023-12-04T05:09:36;14.77;;;11.53;;
65567;SDS011;52211;50.154;8.682;2023-12-04T05:12:03;16.70;;;12.17;;
65567;SDS011;52211;50.154;8.682;2023-12-04T05:14:33;17.30;;;12.13;;
65567;SDS011;52211;50.154;8.682;2023-12-04T05:17:00;16.13;;;12.10;;
65567;SDS011;52211;50.154;8.682;2023-12-04T05:19:27;17.03;;;11.90;;
65567;SDS011;52211;50.154;8.682;2023-12-04T05:21:56;17.03;;;12.03;;
65567;SDS011;52211;50.154;8.682;2023-12-04T05:24:30;15.70;;;11.27;;
65567;SDS011;52211;50.154;8.682;2023-12-04T05:26:57;15.33;;;11.47;;
65567;SDS011;52211;50.154;8.682;2023-12-04T05:29:24;16.50;;;11.87;;
65567;SDS011;52211;50.154;8.682;2023-12-04T05:31:51;20.57;;;14.17;;
65567;SDS011;52211;50.154;8.682;2023-12-04T05:34:21;16.27;;;12.20;;
65567;SDS011;52211;50.154;8.682;2023-12-04T05:36:48;15.23;;;11.70;;
65567;SDS011;52211;50.154;8.682;2023-12-04T05:39:19;18.17;;;12.30;;
65567;SDS011;52211;50.154;8.682;2023-12-04T05:41:48;16.03;;;11.30;;
65567;SDS011;52211;50.154;8.682;2023-12-04T05:44:17;16.60;;;12.00;;
65567;SDS011;52211;50.154;8.682;2023-12-04T05:46:49;14.77;;;11.30;;
65567;SDS011;52211;50.154;8.682;2023-12-04T05:49:20;15.03;;;10.93;;
65567;SDS011;52211;50.154;8.682;2023-12-04T05:51:52;15.13;;;11.73;;
65567;SDS011;52211;50.154;8.682;2023-12-04T05:54:21;18.60;;;12.47;;
65567;SDS011;52211;50.154;8.682;2023-12-04T05:56:48;16.83;;;12.30;;
65567;SDS011;52211;50.154;8.682;2023-12-04T05:59:15;18.70;;;12.17;;
65567;SDS011;52211;50.154;8.682;2023-12-04T06:01:42;17.43;;;11.53;;
65567;SDS011;52211;50.154;8.682;2023-12-04T06:04:12;15.73;;;11.47;;
65567;SDS011;52211;50.154;8.682;2023-12-04T06:06:43;16.23;;;11.23;;
65567;SDS011;52211;50.154;8.682;2023-12-04T06:09:10;16.13;;;11.50;;
65567;SDS011;52211;50.154;8.682;2023-12-04T06:11:37;16.90;;;11.97;;
65567;SDS011;52211;50.154;8.682;2023-12-04T06:14:12;16.40;;;11.40;;
65567;SDS011;52211;50.154;8.682;2023-12-04T06:16:41;20.20;;;12.07;;
65567;SDS011;52211;50.154;8.682;2023-12-04T06:19:13;16.93;;;12.17;;
65567;SDS011;52211;50.154;8.682;2023-12-04T06:21:43;17.30;;;12.23;;
65567;SDS011;52211;50.154;8.682;2023-12-04T06:24:12;16.83;;;12.33;;
65567;SDS011;52211;50.154;8.682;2023-12-04T06:26:41;16.23;;;11.23;;
65567;SDS011;52211;50.154;8.682;2023-12-04T06:29:11;15.07;;;11.67;;
65567;SDS011;52211;50.154;8.682;2023-12-04T06:31:41;16.43;;;11.83;;
65567;SDS011;52211;50.154;8.682;2023-12-04T06:34:08;17.33;;;12.70;;
65567;SDS011;52211;50.154;8.682;2023-12-04T06:36:38;15.37;;;11.50;;
65567;SDS011;52211;50.154;8.682;2023-12-04T06:39:11;16.60;;;11.23;;
65567;SDS011;52211;50.154;8.682;2023-12-04T06:41:39;15.33;;;11.30;;
65567;SDS011;52211;50.154;8.682;2023-12-04T06:44:09;15.63;;;11.87;;
65567;SDS011;52211;50.154;8.682;2023-12-04T06:46:39;16.80;;;11.97;;
65567;SDS011;52211;50.154;8.682;2023-12-04T06:49:17;14.93;;;11.30;;
65567;SDS011;52211;50.154;8.682;2023-12-04T06:51:45;15.20;;;11.40;;
65567;SDS011;52211;50.154;8.682;2023-12-04T06:54:14;14.93;;;10.63;;
65567;SDS011;52211;50.154;8.682;2023-12-04T06:56:44;15.57;;;11.73;;
65567;SDS011;52211;50.154;8.682;2023-12-04T06:59:13;13.23;;;10.40;;
65567;SDS011;52211;50.154;8.682;2023-12-04T07:01:40;15.03;;;10.77;;
65567;SDS011;52211;50.154;8.682;2023-12-04T07:04:12;15.50;;;11.60;;
65567;SDS011;52211;50.154;8.682;2023-12-04T07:06:48;18.40;;;12.57;;
65567;SDS011;52211;50.154;8.682;2023-12-04T07:09:18;14.57;;;10.73;;
65567;SDS011;52211;50.154;8.682;2023-12-04T07:11:44;14.63;;;10.40;;
65567;SDS011;52211;50.154;8.682;2023-12-04T07:14:13;15.50;;;11.97;;
65567;SDS011;52211;50.154;8.682;2023-12-04T07:16:41;15.73;;;11.10;;
65567;SDS011;52211;50.154;8.682;2023-12-04T07:19:11;18.27;;;11.87;;
65567;SDS011;52211;50.154;8.682;2023-12-04T07:21:39;17.70;;;11.47;;
65567;SDS011;52211;50.154;8.682;2023-12-04T07:24:07;16.80;;;11.87;;
65567;SDS011;52211;50.154;8.682;2023-12-04T07:26:39;17.43;;;11.37;;
65567;SDS011;52211;50.154;8.682;2023-12-04T07:29:08;15.27;;;11.50;;
65567;SDS011;52211;50.154;8.682;2023-12-04T07:31:37;17.03;;;11.73;;
65567;SDS011;52211;50.154;8.682;2023-12-04T07:34:04;16.03;;;11.43;;
65567;SDS011;52211;50.154;8.682;2023-12-04T07:36:34;16.33;;;10.90;;
65567;SDS011;52211;50.154;8.682;2023-12-04T07:39:06;15.27;;;11.07;;
65567;SDS011;52211;50.154;8.682;2023-12-04T07:41:35;15.33;;;11.23;;
65567;SDS011;52211;50.154;8.682;2023-12-04T07:44:02;15.17;;;11.53;;
65567;SDS011;52211;50.154;8.682;2023-12-04T07:46:30;13.43;;;10.87;;
65567;SDS011;52211;50.154;8.682;2023-12-04T07:48:57;15.00;;;11.10;;
65567;SDS011;52211;50.154;8.682;2023-12-04T07:51:28;14.97;;;11.33;;
65567;SDS011;52211;50.154;8.682;2023-12-04T07:53:58;17.33;;;12.20;;
65567;SDS011;52211;50.154;8.682;2023-12-04T07:56:29;16.97;;;11.87;;
65567;SDS011;52211;50.154;8.682;2023-12-04T07:58:59;15.70;;;10.80;;
65567;SDS011;52211;50.154;8.682;2023-12-04T08:01:35;15.10;;;10.70;;
65567;SDS011;52211;50.154;8.682;2023-12-04T08:04:02;15.63;;;11.03;;
65567;SDS011;52211;50.154;8.682;2023-12-04T08:06:34;14.83;;;10.77;;
65567;SDS011;52211;50.154;8.682;2023-12-04T08:09:08;15.87;;;10.50;;
65567;SDS011;52211;50.154;8.682;2023-12-04T08:11:36;13.33;;;10.10;;
65567;SDS011;52211;50.154;8.682;2023-12-04T08:14:03;15.53;;;10.93;;
65567;SDS011;52211;50.154;8.682;2023-12-04T08:16:35;13.17;;;9.80;;
65567;SDS011;52211;50.154;8.682;2023-12-04T08:19:06;12.60;;;10.37;;
65567;SDS011;52211;50.154;8.682;2023-12-04T08:21:34;13.07;;;9.47;;
65567;SDS011;52211;50.154;8.682;2023-12-04T08:24:03;15.40;;;10.70;;
65567;SDS011;52211;50.154;8.682;2023-12-04T08:26:33;15.80;;;11.80;;
65567;SDS011;52211;50.154;8.682;2023-12-04T08:29:00;15.03;;;10.50;;
65567;SDS011;52211;50.154;8.682;2023-12-04T08:31:32;14.87;;;10.53;;
65567;SDS011;52211;50.154;8.682;2023-12-04T08:34:01;14.40;;;10.90;;
65567;SDS011;52211;50.154;8.682;2023-12-04T08:36:30;13.20;;;10.00;;
65567;SDS011;52211;50.154;8.682;2023-12-04T08:39:14;15.17;;;11.70;;
65567;SDS011;52211;50.154;8.682;2023-12-04T08:41:44;18.97;;;12.20;;
65567;SDS011;52211;50.154;8.682;2023-12-04T08:44:26;15.03;;;10.57;;
65567;SDS011;52211;50.154;8.682;2023-12-04T08:46:58;14.23;;;11.33;;
65567;SDS011;52211;50.154;8.682;2023-12-04T08:49:27;12.63;;;10.27;;
65567;SDS011;52211;50.154;8.682;2023-12-04T08:52:08;11.80;;;9.60;;
65567;SDS011;52211;50.154;8.682;2023-12-04T08:54:38;12.40;;;9.57;;
65567;SDS011;52211;50.154;8.682;2023-12-04T08:57:07;14.17;;;9.83;;
65567;SDS011;52211;50.154;8.682;2023-12-04T08:59:37;14.63;;;10.90;;
65567;SDS011;52211;50.154;8.682;2023-12-04T09:02:08;14.27;;;9.53;;
65567;SDS011;52211;50.154;8.682;2023-12-04T09:04:42;13.07;;;11.00;;
65567;SDS011;52211;50.154;8.682;2023-12-04T09:07:12;12.20;;;10.03;;
65567;SDS011;52211;50.154;8.682;2023-12-04T09:10:01;14.00;;;10.10;;
65567;SDS011;52211;50.154;8.682;2023-12-04T09:12:39;14.87;;;12.07;;
65567;SDS011;52211;50.154;8.682;2023-12-04T09:15:09;15.40;;;11.77;;
65567;SDS011;52211;50.154;8.682;2023-12-04T09:17:38;16.87;;;11.43;;
65567;SDS011;52211;50.154;8.682;2023-12-04T09:20:05;16.83;;;11.77;;
65567;SDS011;52211;50.154;8.682;2023-12-04T09:22:35;13.30;;;10.47;;
65567;SDS011;52211;50.154;8.682;2023-12-04T09:25:17;10.63;;;8.83;;
65567;SDS011;52211;50.154;8.682;2023-12-04T09:27:44;15.27;;;11.00;;
65567;SDS011;52211;50.154;8.682;2023-12-04T09:30:14;15.50;;;11.53;;
65567;SDS011;52211;50.154;8.682;2023-12-04T09:32:44;15.83;;;10.83;;
65567;SDS011;52211;50.154;8.682;2023-12-04T09:35:11;19.40;;;12.67;;
65567;SDS011;52211;50.154;8.682;2023-12-04T09:37:45;21.70;;;12.87;;
65567;SDS011;52211;50.154;8.682;2023-12-04T09:40:19;32.20;;;17.27;;
65567;SDS011;52211;50.154;8.682;2023-12-04T09:42:50;26.80;;;16.13;;
65567;SDS011;52211;50.154;8.682;2023-12-04T09:45:18;22.40;;;13.80;;
65567;SDS011;52211;50.154;8.682;2023-12-04T09:47:50;18.57;;;14.20;;
65567;SDS011;52211;50.154;8.682;2023-12-04T09:50:21;17.63;;;11.97;;
65567;SDS011;52211;50.154;8.682;2023-12-04T09:52:49;18.20;;;12.87;;
65567;SDS011;52211;50.154;8.682;2023-12-04T09:55:20;19.03;;;12.03;;
65567;SDS011;52211;50.154;8.682;2023-12-04T09:57:50;15.07;;;10.77;;
65567;SDS011;52211;50.154;8.682;2023-12-04T10:00:19;18.60;;;11.43;;
65567;SDS011;52211;50.154;8.682;2023-12-04T10:02:55;17.70;;;11.43;;
65567;SDS011;52211;50.154;8.682;2023-12-04T10:05:26;16.67;;;11.57;;
65567;SDS011;52211;50.154;8.682;2023-12-04T10:07:55;16.00;;;11.47;;
65567;SDS011;52211;50.154;8.682;2023-12-04T10:10:22;16.70;;;11.20;;
65567;SDS011;52211;50.154;8.682;2023-12-04T10:12:54;14.67;;;10.87;;
65567;SDS011;52211;50.154;8.682;2023-12-04T10:15:24;16.33;;;10.97;;
65567;SDS011;52211;50.154;8.682;2023-12-04T10:17:51;15.23;;;10.53;;
65567;SDS011;52211;50.154;8.682;2023-12-04T10:20:20;24.93;;;10.30;;
65567;SDS011;52211;50.154;8.682;2023-12-04T10:22:58;12.83;;;10.00;;
65567;SDS011;52211;50.154;8.682;2023-12-04T10:25:28;12.10;;;8.97;;
65567;SDS011;52211;50.154;8.682;2023-12-04T10:28:08;14.47;;;10.27;;
65567;SDS011;52211;50.154;8.682;2023-12-04T10:30:42;14.70;;;10.03;;
65567;SDS011;52211;50.154;8.682;2023-12-04T10:33:09;11.93;;;9.33;;
65567;SDS011;52211;50.154;8.682;2023-12-04T10:35:40;12.57;;;8.93;;
65567;SDS011;52211;50.154;8.682;2023-12-04T10:38:11;12.83;;;9.50;;
65567;SDS011;52211;50.154;8.682;2023-12-04T10:40:43;11.47;;;8.60;;
65567;SDS011;52211;50.154;8.682;2023-12-04T10:43:21;12.13;;;9.93;;
65567;SDS011;52211;50.154;8.682;2023-12-04T10:45:50;12.30;;;9.80;;
65567;SDS011;52211;50.154;8.682;2023-12-04T10:48:22;13.73;;;9.17;;
65567;SDS011;52211;50.154;8.682;2023-12-04T10:50:50;11.87;;;9.13;;
65567;SDS011;52211;50.154;8.682;2023-12-04T10:53:19;13.60;;;9.43;;
65567;SDS011;52211;50.154;8.682;2023-12-04T10:55:49;12.57;;;9.70;;
65567;SDS011;52211;50.154;8.682;2023-12-04T10:58:27;12.23;;;9.00;;
65567;SDS011;52211;50.154;8.682;2023-12-04T11:00:55;13.83;;;10.40;;
65567;SDS011;52211;50.154;8.682;2023-12-04T11:03:43;14.17;;;10.70;;
65567;SDS011;52211;50.154;8.682;2023-12-04T11:06:14;11.40;;;8.73;;
65567;SDS011;52211;50.154;8.682;2023-12-04T11:08:44;13.63;;;8.87;;
65567;SDS011;52211;50.154;8.682;2023-12-04T11:11:26;12.80;;;9.77;;
65567;SDS011;52211;50.154;8.682;2023-12-04T11:13:59;12.37;;;9.17;;
65567;SDS011;52211;50.154;8.682;2023-12-04T11:16:38;11.53;;;9.30;;
65567;SDS011;52211;50.154;8.682;2023-12-04T11:22:16;12.93;;;8.93;;
65567;SDS011;52211;50.154;8.682;2023-12-04T11:24:48;11.40;;;8.60;;
65567;SDS011;52211;50.154;8.682;2023-12-04T11:27:17;11.50;;;8.97;;
65567;SDS011;52211;50.154;8.682;2023-12-04T11:29:46;13.93;;;10.60;;
65567;SDS011;52211;50.154;8.682;2023-12-04T11:32:16;15.00;;;10.33;;
65567;SDS011;52211;50.154;8.682;2023-12-04T11:34:48;11.73;;;9.40;;
65567;SDS011;52211;50.154;8.682;2023-12-04T11:37:20;11.87;;;8.87;;
65567;SDS011;52211;50.154;8.682;2023-12-04T11:39:50;15.03;;;9.57;;
65567;SDS011;52211;50.154;8.682;2023-12-04T11:42:26;13.40;;;9.30;;
65567;SDS011;52211;50.154;8.682;2023-12-04T11:44:55;12.13;;;9.00;;
65567;SDS011;52211;50.154;8.682;2023-12-04T11:47:24;13.07;;;9.63;;
65567;SDS011;52211;50.154;8.682;2023-12-04T11:49:57;11.33;;;8.63;;
65567;SDS011;52211;50.154;8.682;2023-12-04T11:52:32;13.80;;;9.37;;
65567;SDS011;52211;50.154;8.682;2023-12-04T11:55:01;12.30;;;8.80;;
65567;SDS011;52211;50.154;8.682;2023-12-04T11:57:33;9.97;;;8.43;;
65567;SDS011;52211;50.154;8.682;2023-12-04T12:00:10;13.33;;;9.20;;
65567;SDS011;52211;50.154;8.682;2023-12-04T12:05:44;10.33;;;7.90;;
65567;SDS011;52211;50.154;8.682;2023-12-04T12:08:11;14.27;;;9.67;;
65567;SDS011;52211;50.154;8.682;2023-12-04T12:10:41;13.33;;;9.60;;
65567;SDS011;52211;50.154;8.682;2023-12-04T12:13:11;11.63;;;9.30;;
65567;SDS011;52211;50.154;8.682;2023-12-04T12:15:41;12.33;;;9.13;;
65567;SDS011;52211;50.154;8.682;2023-12-04T12:18:12;11.80;;;9.03;;
65567;SDS011;52211;50.154;8.682;2023-12-04T12:20:42;13.90;;;9.90;;
65567;SDS011;52211;50.154;8.682;2023-12-04T12:23:11;12.97;;;9.50;;
65567;SDS011;52211;50.154;8.682;2023-12-04T12:25:43;12.60;;;9.43;;
65567;SDS011;52211;50.154;8.682;2023-12-04T12:28:14;13.20;;;8.47;;
65567;SDS011;52211;50.154;8.682;2023-12-04T12:30:41;13.47;;;9.70;;
65567;SDS011;52211;50.154;8.682;2023-12-04T12:33:15;14.47;;;9.50;;
65567;SDS011;52211;50.154;8.682;2023-12-04T12:35:47;14.50;;;9.17;;
65567;SDS011;52211;50.154;8.682;2023-12-04T12:38:30;14.90;;;9.47;;
65567;SDS011;52211;50.154;8.682;2023-12-04T12:41:01;13.87;;;10.23;;
65567;SDS011;52211;50.154;8.682;2023-12-04T12:43:33;12.73;;;9.83;;
65567;SDS011;52211;50.154;8.682;2023-12-04T12:46:04;13.20;;;9.20;;
65567;SDS011;52211;50.154;8.682;2023-12-04T12:48:36;11.70;;;9.30;;
65567;SDS011;52211;50.154;8.682;2023-12-04T12:51:08;13.17;;;9.20;;
65567;SDS011;52211;50.154;8.682;2023-12-04T12:53:39;11.17;;;8.87;;
65567;SDS011;52211;50.154;8.682;2023-12-04T12:56:09;14.37;;;9.83;;
65567;SDS011;52211;50.154;8.682;2023-12-04T12:58:39;13.27;;;9.43;;
65567;SDS011;52211;50.154;8.682;2023-12-04T13:01:10;13.07;;;9.80;;
65567;SDS011;52211;50.154;8.682;2023-12-04T13:03:40;13.97;;;10.17;;
65567;SDS011;52211;50.154;8.682;2023-12-04T13:06:14;12.03;;;9.97;;
65567;SDS011;52211;50.154;8.682;2023-12-04T13:08:44;11.87;;;8.60;;
65567;SDS011;52211;50.154;8.682;2023-12-04T13:11:10;12.50;;;9.70;;
65567;SDS011;52211;50.154;8.682;2023-12-04T13:13:37;13.03;;;9.80;;
65567;SDS011;52211;50.154;8.682;2023-12-04T13:16:04;13.63;;;9.57;;
65567;SDS011;52211;50.154;8.682;2023-12-04T13:18:32;11.03;;;8.73;;
65567;SDS011;52211;50.154;8.682;2023-12-04T13:21:01;13.63;;;9.77;;
65567;SDS011;52211;50.154;8.682;2023-12-04T13:23:29;12.57;;;9.37;;
65567;SDS011;52211;50.154;8.682;2023-12-04T13:26:02;13.27;;;9.20;;
65567;SDS011;52211;50.154;8.682;2023-12-04T13:28:30;14.83;;;9.80;;
65567;SDS011;52211;50.154;8.682;2023-12-04T13:31:05;12.43;;;8.70;;
65567;SDS011;52211;50.154;8.682;2023-12-04T13:33:32;17.33;;;9.67;;
65567;SDS011;52211;50.154;8.682;2023-12-04T13:36:02;11.33;;;9.07;;
65567;SDS011;52211;50.154;8.682;2023-12-04T13:38:31;13.07;;;9.07;;
65567;SDS011;52211;50.154;8.682;2023-12-04T13:41:03;12.63;;;10.43;;
65567;SDS011;52211;50.154;8.682;2023-12-04T13:43:51;13.23;;;9.20;;
65567;SDS011;52211;50.154;8.682;2023-12-04T13:46:24;12.97;;;9.43;;
65567;SDS011;52211;50.154;8.682;2023-12-04T13:48:56;12.67;;;9.50;;
65567;SDS011;52211;50.154;8.682;2023-12-04T13:51:26;11.97;;;9.23;;
65567;SDS011;52211;50.154;8.682;2023-12-04T13:53:58;11.57;;;9.40;;
65567;SDS011;52211;50.154;8.682;2023-12-04T13:56:38;13.27;;;9.40;;
65567;SDS011;52211;50.154;8.682;2023-12-04T13:59:13;12.40;;;9.27;;
65567;SDS011;52211;50.154;8.682;2023-12-04T14:01:46;11.57;;;9.53;;
65567;SDS011;52211;50.154;8.682;2023-12-04T14:04:18;13.23;;;9.77;;
65567;SDS011;52211;50.154;8.682;2023-12-04T14:06:46;16.10;;;9.63;;
65567;SDS011;52211;50.154;8.682;2023-12-04T14:09:14;19.03;;;11.10;;
65567;SDS011;52211;50.154;8.682;2023-12-04T14:11:46;14.77;;;11.00;;
65567;SDS011;52211;50.154;8.682;2023-12-04T14:14:15;15.60;;;9.87;;
65567;SDS011;52211;50.154;8.682;2023-12-04T14:16:44;14.40;;;11.83;;
65567;SDS011;52211;50.154;8.682;2023-12-04T14:19:15;16.57;;;12.30;;
65567;SDS011;52211;50.154;8.682;2023-12-04T14:21:44;23.00;;;15.17;;
65567;SDS011;52211;50.154;8.682;2023-12-04T14:24:18;21.53;;;14.00;;
65567;SDS011;52211;50.154;8.682;2023-12-04T14:26:47;21.00;;;13.47;;
65567;SDS011;52211;50.154;8.682;2023-12-04T14:29:14;17.63;;;12.73;;
65567;SDS011;52211;50.154;8.682;2023-12-04T14:31:41;15.90;;;11.70;;
65567;SDS011;52211;50.154;8.682;2023-12-04T14:34:11;16.57;;;12.60;;
65567;SDS011;52211;50.154;8.682;2023-12-04T14:36:40;15.80;;;11.60;;
65567;SDS011;52211;50.154;8.682;2023-12-04T14:39:12;14.90;;;10.80;;
65567;SDS011;52211;50.154;8.682;2023-12-04T14:41:46;13.97;;;11.13;;
65567;SDS011;52211;50.154;8.682;2023-12-04T14:44:13;14.37;;;10.13;;
65567;SDS011;52211;50.154;8.682;2023-12-04T14:46:42;15.67;;;10.57;;
65567;SDS011;52211;50.154;8.682;2023-12-04T14:49:14;15.27;;;9.90;;